Time;durP1;ratioP1;P1;durP2;ratioP2;P2;SDS_P1;SDS_P2;PMS_P1;PMS_P2;Temp;Humidity;BMP_temperature;BMP_pressure;BME280_temperature;BME280_humidity;BME280_pressure;Samples;Min_cycle;Max_cycle;Signal;HPM_P1;HPM_P2
2022/10/28 00:00:12;;;;;;;8.70;8.00;;;13.20;1.00;;;;;;6380432;27;20623;-54
2022/10/28 00:03:17;;;;;;;8.40;7.70;;;13.20;1.00;;;;;;6385765;27;20753;-54
2022/10/28 00:06:23;;;;;;;9.07;8.17;;;13.20;1.00;;;;;;6380932;27;20226;-53
2022/10/28 00:09:41;;;;;;;9.60;8.67;;;13.20;1.00;;;;;;6385426;27;20261;-53
2022/10/28 00:12:44;;;;;;;11.00;10.13;;;13.20;1.00;;;;;;6380885;27;20484;-53
2022/10/28 00:15:48;;;;;;;10.20;9.33;;;13.30;1.00;;;;;;6384774;27;20230;-55
2022/10/28 00:18:53;;;;;;;9.57;8.77;;;13.30;1.00;;;;;;6385929;27;20420;-53
2022/10/28 00:21:56;;;;;;;8.87;8.27;;;13.30;1.00;;;;;;6386037;27;20241;-53
2022/10/28 00:24:59;;;;;;;9.43;8.63;;;13.30;1.00;;;;;;6385592;27;20238;-53
2022/10/28 00:28:02;;;;;;;9.60;8.80;;;13.30;1.00;;;;;;6386711;27;20740;-53
2022/10/28 00:31:06;;;;;;;8.53;7.83;;;13.30;1.00;;;;;;6382310;27;20477;-58
2022/10/28 00:34:13;;;;;;;8.23;7.53;;;13.30;1.00;;;;;;6368266;27;20233;-55
2022/10/28 00:37:16;;;;;;;8.40;7.67;;;13.40;1.00;;;;;;6384251;27;20318;-54
2022/10/28 00:40:19;;;;;;;8.50;7.97;;;13.30;1.00;;;;;;6380441;27;20241;-54
2022/10/28 00:43:34;;;;;;;7.77;7.17;;;13.30;1.00;;;;;;6384977;27;20234;-56
2022/10/28 00:46:42;;;;;;;7.57;7.07;;;13.30;1.00;;;;;;6385970;27;20223;-53
2022/10/28 00:49:48;;;;;;;8.87;8.03;;;13.40;1.00;;;;;;6385078;27;20222;-54
2022/10/28 00:52:55;;;;;;;7.87;7.27;;;13.30;1.00;;;;;;6386046;27;20247;-53
2022/10/28 00:56:00;;;;;;;8.37;7.60;;;13.30;1.00;;;;;;6384428;27;20230;-55
2022/10/28 00:59:06;;;;;;;7.33;6.93;;;13.30;1.00;;;;;;6376289;27;20219;-55
2022/10/28 01:02:09;;;;;;;8.93;8.40;;;13.30;1.00;;;;;;6360015;28;20751;-53
2022/10/28 01:05:18;;;;;;;9.27;8.57;;;13.40;1.00;;;;;;6360965;28;20231;-54
2022/10/28 01:08:21;;;;;;;11.13;9.47;;;13.40;1.00;;;;;;6368990;27;20241;-53
2022/10/28 01:11:51;;;;;;;9.03;8.30;;;13.40;1.00;;;;;;6386132;27;20268;-54
2022/10/28 01:15:05;;;;;;;8.60;8.00;;;13.40;1.00;;;;;;6360773;28;20240;-54
2022/10/28 01:18:22;;;;;;;9.57;8.87;;;13.40;1.00;;;;;;6359858;28;20401;-52
2022/10/28 01:21:43;;;;;;;8.37;7.77;;;13.40;1.00;;;;;;6359703;28;20243;-53
2022/10/28 01:25:22;;;;;;;8.53;7.90;;;13.40;1.00;;;;;;6360305;28;20254;-54
2022/10/28 01:29:13;;;;;;;9.93;8.93;;;13.40;1.00;;;;;;6359111;27;20687;-53
2022/10/28 01:32:27;;;;;;;9.40;8.40;;;13.50;1.00;;;;;;6290077;27;20249;-54
2022/10/28 01:35:38;;;;;;;8.77;8.07;;;13.40;1.00;;;;;;6376754;27;20246;-53
2022/10/28 01:38:50;;;;;;;9.10;8.40;;;13.50;1.00;;;;;;6350580;27;20230;-54
2022/10/28 01:42:15;;;;;;;8.70;8.10;;;13.40;1.00;;;;;;6380288;27;20245;-53
2022/10/28 01:45:22;;;;;;;7.30;6.83;;;13.40;1.00;;;;;;6384427;27;20223;-54
2022/10/28 01:48:43;;;;;;;8.00;7.50;;;13.40;1.00;;;;;;6363122;27;20227;-53
2022/10/28 01:51:49;;;;;;;7.90;7.33;;;13.40;1.00;;;;;;6363633;27;20326;-53
2022/10/28 01:54:57;;;;;;;7.50;7.00;;;13.30;1.00;;;;;;6364384;27;20237;-56
2022/10/28 01:58:03;;;;;;;8.27;7.73;;;13.30;1.00;;;;;;6374514;27;20388;-54
2022/10/28 02:01:09;;;;;;;7.70;7.17;;;13.30;1.00;;;;;;6389070;27;20239;-53
2022/10/28 02:04:13;;;;;;;7.00;6.70;;;13.30;1.00;;;;;;6367886;27;20322;-53
2022/10/28 02:07:16;;;;;;;7.87;7.37;;;13.30;1.00;;;;;;6370506;27;20227;-53
2022/10/28 02:10:26;;;;;;;7.87;7.30;;;13.30;1.00;;;;;;6388439;27;20226;-54
2022/10/28 02:13:44;;;;;;;8.20;7.50;;;13.20;1.00;;;;;;6380727;27;20238;-53
2022/10/28 02:16:54;;;;;;;8.07;7.50;;;13.20;1.00;;;;;;6390198;27;20227;-54
2022/10/28 02:20:07;;;;;;;7.87;7.20;;;13.20;1.00;;;;;;6389417;27;20237;-54
2022/10/28 02:23:17;;;;;;;8.03;7.37;;;13.20;1.00;;;;;;6389616;27;20473;-59
2022/10/28 02:26:26;;;;;;;7.57;7.07;;;13.10;1.00;;;;;;6388476;27;20237;-53
2022/10/28 02:29:34;;;;;;;7.80;7.30;;;13.10;1.00;;;;;;6390008;27;20231;-53
2022/10/28 02:32:42;;;;;;;8.03;7.53;;;13.10;1.00;;;;;;6387492;27;20257;-53
2022/10/28 02:35:49;;;;;;;8.50;7.83;;;13.10;1.00;;;;;;6387231;27;20343;-53
2022/10/28 02:38:56;;;;;;;7.73;7.13;;;13.00;1.00;;;;;;6384555;27;20580;-53
2022/10/28 02:42:03;;;;;;;7.23;6.93;;;13.00;1.00;;;;;;6389387;27;20234;-53
2022/10/28 02:45:12;;;;;;;7.37;6.87;;;13.00;1.00;;;;;;6388551;27;20233;-53
2022/10/28 02:48:21;;;;;;;7.83;7.30;;;12.90;1.00;;;;;;6361957;27;20466;-54
2022/10/28 02:51:33;;;;;;;8.33;7.63;;;12.90;1.00;;;;;;6363147;27;20243;-56
2022/10/28 02:54:40;;;;;;;10.60;8.00;;;12.90;1.00;;;;;;6352986;27;20223;-54
2022/10/28 02:57:47;;;;;;;8.60;7.83;;;12.80;1.00;;;;;;6371479;27;20231;-55
2022/10/28 03:00:51;;;;;;;8.13;7.53;;;12.90;1.00;;;;;;6382505;27;20238;-53
2022/10/28 03:03:54;;;;;;;8.70;7.90;;;12.80;1.00;;;;;;6388756;27;20275;-53
2022/10/28 03:06:58;;;;;;;8.27;7.60;;;12.80;1.00;;;;;;6387399;27;20236;-55
2022/10/28 03:10:01;;;;;;;8.20;7.60;;;12.80;1.00;;;;;;6381095;27;20218;-54
2022/10/28 03:13:03;;;;;;;8.27;7.67;;;12.80;1.00;;;;;;6387651;27;20243;-54
2022/10/28 03:16:06;;;;;;;8.13;7.53;;;12.70;1.00;;;;;;6387948;27;20257;-55
2022/10/28 03:19:09;;;;;;;7.77;7.30;;;12.70;1.00;;;;;;6363895;27;20243;-54
2022/10/28 03:22:13;;;;;;;7.13;6.73;;;12.70;1.00;;;;;;6362178;27;20243;-53
2022/10/28 03:25:17;;;;;;;8.57;7.80;;;12.70;1.00;;;;;;6362946;27;20243;-54
2022/10/28 03:28:20;;;;;;;8.53;7.77;;;12.70;1.00;;;;;;6358140;27;20231;-53
2022/10/28 03:31:23;;;;;;;9.37;8.60;;;12.60;1.00;;;;;;6360110;27;20234;-53
2022/10/28 03:34:26;;;;;;;7.90;7.40;;;12.60;1.00;;;;;;6378293;27;20238;-53
2022/10/28 03:37:30;;;;;;;8.40;7.80;;;12.60;1.00;;;;;;6386786;27;20297;-53
2022/10/28 03:40:33;;;;;;;9.93;9.03;;;12.50;1.00;;;;;;6374634;27;20239;-54
2022/10/28 03:43:36;;;;;;;8.63;8.03;;;12.50;1.00;;;;;;6385779;27;20232;-53
2022/10/28 03:46:39;;;;;;;8.63;8.03;;;12.50;1.00;;;;;;6386450;27;20241;-55
2022/10/28 03:49:42;;;;;;;8.23;7.63;;;12.50;1.00;;;;;;6380920;27;20234;-53
2022/10/28 03:52:46;;;;;;;9.30;8.47;;;12.50;1.00;;;;;;6385313;27;20234;-54
2022/10/28 03:55:53;;;;;;;8.90;8.10;;;12.50;1.00;;;;;;6386426;27;20231;-54
2022/10/28 03:58:56;;;;;;;7.83;7.33;;;12.50;1.00;;;;;;6385897;27;20227;-54
2022/10/28 04:02:08;;;;;;;8.30;7.70;;;12.40;1.00;;;;;;6384420;27;20238;-58
2022/10/28 04:05:11;;;;;;;8.50;7.90;;;12.40;1.00;;;;;;6386746;27;20223;-53
2022/10/28 04:08:15;;;;;;;8.87;8.20;;;12.40;1.00;;;;;;6379810;27;20821;-52
2022/10/28 04:11:18;;;;;;;7.77;7.27;;;12.30;1.00;;;;;;6378819;27;20754;-57
2022/10/28 04:14:21;;;;;;;7.93;7.37;;;12.40;1.00;;;;;;6386556;27;20238;-53
2022/10/28 04:17:24;;;;;;;8.40;7.80;;;12.30;1.00;;;;;;6389216;27;20254;-54
2022/10/28 04:20:28;;;;;;;7.97;7.53;;;12.30;1.00;;;;;;6387603;27;20245;-54
2022/10/28 04:23:32;;;;;;;9.00;8.40;;;12.30;1.00;;;;;;6379400;27;20234;-54
2022/10/28 04:26:35;;;;;;;8.90;8.30;;;12.30;1.00;;;;;;6386380;27;20237;-54
2022/10/28 04:29:38;;;;;;;8.93;8.33;;;12.30;1.00;;;;;;6378165;27;20263;-53
2022/10/28 04:32:41;;;;;;;10.10;9.20;;;12.30;1.00;;;;;;6377350;27;20226;-52
2022/10/28 04:35:45;;;;;;;9.40;8.73;;;12.30;1.00;;;;;;6385608;27;20593;-53
2022/10/28 04:38:50;;;;;;;8.03;7.63;;;12.20;1.00;;;;;;6386110;27;20233;-52
2022/10/28 04:41:53;;;;;;;8.27;7.67;;;12.20;1.00;;;;;;6376659;27;20271;-54
2022/10/28 04:44:56;;;;;;;8.00;7.50;;;12.20;1.00;;;;;;6385897;27;20230;-53
2022/10/28 04:48:00;;;;;;;9.13;8.43;;;12.20;1.00;;;;;;6383478;27;20241;-54
2022/10/28 04:51:08;;;;;;;8.63;7.90;;;12.20;1.00;;;;;;6385191;27;20670;-55
2022/10/28 04:54:12;;;;;;;8.93;8.23;;;12.20;1.00;;;;;;6385951;27;20272;-57
2022/10/28 04:57:15;;;;;;;8.13;7.63;;;12.20;1.00;;;;;;6374162;27;20804;-53
2022/10/28 05:00:19;;;;;;;7.87;7.23;;;12.20;1.00;;;;;;6383522;27;20609;-53
2022/10/28 05:03:22;;;;;;;7.87;7.33;;;12.10;1.00;;;;;;6384212;27;20234;-55
2022/10/28 05:06:24;;;;;;;8.40;7.80;;;12.10;1.00;;;;;;6373739;27;20242;-54
2022/10/28 05:09:29;;;;;;;10.83;9.43;;;12.10;1.00;;;;;;6383502;27;20389;-54
2022/10/28 05:12:31;;;;;;;8.37;7.87;;;12.10;1.00;;;;;;6383238;27;20621;-53
2022/10/28 05:15:34;;;;;;;8.43;7.83;;;12.10;1.00;;;;;;6385193;27;20235;-53
2022/10/28 05:18:38;;;;;;;7.93;7.53;;;12.10;1.00;;;;;;6383647;27;20230;-53
2022/10/28 05:21:40;;;;;;;9.23;8.50;;;12.00;1.00;;;;;;6386309;27;20298;-54
2022/10/28 05:24:45;;;;;;;8.67;8.03;;;12.00;1.00;;;;;;6389539;27;20241;-53
2022/10/28 05:27:48;;;;;;;8.70;8.03;;;12.10;1.00;;;;;;6389293;27;20245;-53
2022/10/28 05:30:51;;;;;;;11.10;10.10;;;12.00;1.00;;;;;;6387319;27;20249;-54
2022/10/28 05:33:53;;;;;;;10.07;9.27;;;12.00;1.00;;;;;;6386615;27;20234;-53
2022/10/28 05:36:56;;;;;;;10.07;9.13;;;12.00;1.00;;;;;;6388450;27;20697;-54
2022/10/28 05:40:00;;;;;;;9.57;8.77;;;12.00;1.00;;;;;;6389555;27;20238;-54
2022/10/28 05:43:04;;;;;;;10.63;9.63;;;12.00;1.00;;;;;;6389365;27;20249;-54
2022/10/28 05:46:07;;;;;;;10.70;9.70;;;12.00;1.00;;;;;;6389727;27;20610;-54
2022/10/28 05:49:10;;;;;;;12.17;11.07;;;12.00;1.00;;;;;;6359490;27;20227;-54
2022/10/28 05:52:12;;;;;;;12.10;10.83;;;12.10;1.00;;;;;;6383834;27;20231;-54
2022/10/28 05:55:18;;;;;;;13.93;10.37;;;12.10;1.00;;;;;;6388814;27;20231;-53
2022/10/28 05:58:21;;;;;;;10.87;9.77;;;12.20;1.00;;;;;;6384174;27;20257;-53
2022/10/28 06:01:24;;;;;;;11.83;10.67;;;12.20;1.00;;;;;;6381511;27;20738;-53
2022/10/28 06:04:27;;;;;;;13.60;11.30;;;12.30;1.00;;;;;;6389010;27;20238;-54
2022/10/28 06:07:40;;;;;;;13.17;10.40;;;12.40;1.00;;;;;;6387534;27;20242;-53
2022/10/28 06:10:51;;;;;;;10.87;9.90;;;12.50;1.00;;;;;;6387363;27;20226;-53
2022/10/28 06:13:57;;;;;;;12.53;10.20;;;12.50;1.00;;;;;;6390323;27;20534;-52
2022/10/28 06:16:59;;;;;;;13.37;11.30;;;12.60;1.00;;;;;;6384787;27;20260;-53
2022/10/28 06:20:05;;;;;;;10.50;9.60;;;12.70;1.00;;;;;;6385567;27;20231;-53
2022/10/28 06:23:08;;;;;;;10.13;9.13;;;12.80;1.00;;;;;;6388603;27;20231;-54
2022/10/28 06:26:12;;;;;;;9.57;8.63;;;12.80;1.00;;;;;;6389806;27;20240;-53
2022/10/28 06:29:15;;;;;;;14.40;11.23;;;12.80;1.00;;;;;;6386822;27;20241;-54
2022/10/28 06:32:17;;;;;;;12.63;11.13;;;12.90;1.00;;;;;;6380750;27;20231;-53
2022/10/28 06:35:20;;;;;;;12.57;10.13;;;12.90;1.00;;;;;;6384707;27;20238;-52
2022/10/28 06:38:23;;;;;;;10.93;9.27;;;13.00;1.00;;;;;;6389360;27;20227;-53
2022/10/28 06:41:28;;;;;;;14.13;11.10;;;13.00;1.00;;;;;;6388310;27;20241;-53
2022/10/28 06:44:31;;;;;;;13.83;11.00;;;13.10;1.00;;;;;;6379458;27;20234;-54
2022/10/28 06:47:34;;;;;;;11.30;10.20;;;13.10;1.00;;;;;;6387815;27;20236;-55
2022/10/28 06:50:43;;;;;;;10.50;9.50;;;13.10;1.00;;;;;;6384065;27;20234;-53
2022/10/28 06:53:55;;;;;;;10.90;9.67;;;13.10;1.00;;;;;;6388183;27;20241;-54
2022/10/28 06:56:59;;;;;;;9.80;8.93;;;13.20;1.00;;;;;;6386062;27;20226;-55
2022/10/28 07:00:02;;;;;;;10.90;9.50;;;13.30;1.00;;;;;;6379355;27;20222;-54
2022/10/28 07:03:05;;;;;;;10.73;9.67;;;13.30;1.00;;;;;;6385377;27;20616;-54
2022/10/28 07:06:08;;;;;;;10.13;9.10;;;13.40;1.00;;;;;;6386655;27;20231;-54
2022/10/28 07:09:14;;;;;;;10.40;9.03;;;13.40;1.00;;;;;;6382250;27;20237;-53
2022/10/28 07:12:18;;;;;;;11.70;9.13;;;13.50;1.00;;;;;;6384706;27;20607;-58
2022/10/28 07:15:21;;;;;;;9.30;8.40;;;13.50;1.00;;;;;;6385552;27;20332;-58
2022/10/28 07:18:26;;;;;;;9.87;9.03;;;13.60;1.00;;;;;;6384137;27;20226;-54
2022/10/28 07:21:29;;;;;;;15.20;9.23;;;13.70;1.00;;;;;;6386499;27;20238;-54
2022/10/28 07:24:32;;;;;;;11.77;9.23;;;13.70;1.00;;;;;;6385423;27;20231;-54
2022/10/28 07:27:36;;;;;;;11.60;9.00;;;13.80;1.00;;;;;;6384914;27;20231;-53
2022/10/28 07:30:39;;;;;;;12.87;9.13;;;13.80;1.00;;;;;;6382070;27;20441;-55
2022/10/28 07:33:42;;;;;;;9.30;8.40;;;13.90;1.00;;;;;;6379064;27;20234;-54
2022/10/28 07:36:45;;;;;;;10.23;8.60;;;14.00;1.00;;;;;;6385223;27;20241;-52
2022/10/28 07:39:48;;;;;;;8.37;7.70;;;14.10;1.00;;;;;;6378515;27;20234;-52
2022/10/28 07:42:52;;;;;;;10.37;8.57;;;14.20;1.00;;;;;;6384921;27;20227;-53
2022/10/28 07:45:56;;;;;;;8.60;7.80;;;14.40;1.00;;;;;;6380768;27;20258;-54
2022/10/28 07:48:59;;;;;;;9.43;8.60;;;14.50;1.00;;;;;;6382938;27;20249;-53
2022/10/28 07:52:09;;;;;;;8.40;7.60;;;14.60;1.00;;;;;;6386005;27;20235;-54
2022/10/28 07:55:12;;;;;;;9.70;7.70;;;14.70;1.00;;;;;;6377695;27;20234;-53
2022/10/28 07:58:17;;;;;;;9.00;7.93;;;14.80;1.00;;;;;;6384624;27;20595;-54
2022/10/28 08:01:21;;;;;;;10.63;8.10;;;14.90;1.00;;;;;;6385596;27;20788;-55
2022/10/28 08:04:24;;;;;;;11.47;8.77;;;15.00;1.00;;;;;;6383842;27;20226;-55
2022/10/28 08:07:41;;;;;;;8.97;8.13;;;15.10;1.00;;;;;;6384690;27;20227;-53
2022/10/28 08:10:45;;;;;;;8.47;7.53;;;15.20;1.00;;;;;;6378340;27;20230;-55
2022/10/28 08:13:51;;;;;;;8.03;7.20;;;15.40;1.00;;;;;;6383109;27;20231;-54
2022/10/28 08:16:54;;;;;;;8.13;7.27;;;15.50;1.00;;;;;;6385161;27;20227;-54
2022/10/28 08:19:57;;;;;;;9.80;7.30;;;15.60;1.00;;;;;;6384739;27;20223;-54
2022/10/28 08:23:00;;;;;;;12.03;7.63;;;15.70;1.00;;;;;;6381039;27;20713;-53
2022/10/28 08:26:08;;;;;;;8.30;7.17;;;15.90;1.00;;;;;;6383829;27;20230;-54
2022/10/28 08:29:12;;;;;;;6.73;6.13;;;16.10;1.00;;;;;;6384350;27;20233;-54
2022/10/28 08:32:15;;;;;;;9.90;6.87;;;16.30;1.00;;;;;;6375811;27;20230;-53
2022/10/28 08:35:18;;;;;;;7.83;7.03;;;16.50;1.00;;;;;;6385518;27;20258;-53
2022/10/28 08:38:22;;;;;;;9.07;6.63;;;16.70;1.00;;;;;;6383370;27;20395;-54
2022/10/28 08:41:34;;;;;;;11.60;8.27;;;16.80;1.00;;;;;;6384501;27;20614;-53
2022/10/28 08:45:13;;;;;;;9.63;6.40;;;16.90;1.00;;;;;;6390121;27;20231;-54
2022/10/28 08:48:28;;;;;;;9.57;6.17;;;17.00;1.00;;;;;;6354121;27;20234;-54
2022/10/28 08:51:45;;;;;;;7.27;6.60;;;16.80;1.00;;;;;;6387416;27;20230;-54
2022/10/28 08:54:52;;;;;;;6.87;6.27;;;16.70;1.00;;;;;;6385500;27;20231;-53
2022/10/28 08:57:59;;;;;;;10.30;6.17;;;16.70;1.00;;;;;;6383621;27;20226;-53
2022/10/28 09:01:08;;;;;;;6.17;5.77;;;16.70;1.00;;;;;;6386586;27;20261;-53
2022/10/28 09:04:21;;;;;;;6.33;5.83;;;16.80;1.00;;;;;;6385518;27;20616;-56
2022/10/28 09:07:24;;;;;;;8.30;5.53;;;16.90;1.00;;;;;;6383635;27;20231;-54
2022/10/28 09:10:44;;;;;;;7.77;6.33;;;17.00;1.00;;;;;;6382154;27;20241;-53
2022/10/28 09:14:11;;;;;;;8.57;5.90;;;17.20;1.00;;;;;;6380521;27;20743;-54
2022/10/28 09:17:19;;;;;;;6.33;5.83;;;17.40;1.00;;;;;;6381264;27;20223;-53
2022/10/28 09:20:31;;;;;;;7.93;6.00;;;17.40;1.00;;;;;;6385240;27;20313;-56
2022/10/28 09:23:39;;;;;;;6.90;5.90;;;17.50;1.00;;;;;;6371109;27;20413;-54
2022/10/28 09:26:51;;;;;;;9.03;6.30;;;17.60;1.00;;;;;;6385163;27;20237;-54
2022/10/28 09:30:00;;;;;;;10.07;5.33;;;17.80;1.00;;;;;;6384455;27;20230;-54
2022/10/28 09:33:16;;;;;;;9.27;5.80;;;17.90;1.00;;;;;;6370549;27;20231;-54
2022/10/28 09:36:24;;;;;;;8.03;5.70;;;18.10;1.00;;;;;;6384090;27;20764;-53
2022/10/28 09:39:31;;;;;;;6.03;5.43;;;18.30;1.00;;;;;;6384659;27;20234;-54
2022/10/28 09:42:42;;;;;;;5.90;5.37;;;18.40;1.00;;;;;;6383039;27;20241;-53
2022/10/28 09:45:49;;;;;;;7.30;5.13;;;18.50;1.00;;;;;;6384957;27;20291;-58
2022/10/28 09:48:58;;;;;;;7.37;5.17;;;18.60;1.00;;;;;;6383602;27;20233;-55
2022/10/28 09:52:11;;;;;;;9.97;5.33;;;18.70;1.00;;;;;;6381195;27;20364;-53
2022/10/28 09:55:21;;;;;;;5.37;5.03;;;18.90;1.00;;;;;;6384268;27;20258;-53
2022/10/28 09:58:24;;;;;;;8.67;5.73;;;19.00;1.00;;;;;;6383347;27;20234;-60
2022/10/28 10:01:32;;;;;;;8.50;6.20;;;19.10;1.00;;;;;;6381117;27;20240;-54
2022/10/28 10:04:37;;;;;;;8.50;5.40;;;19.40;1.00;;;;;;6384415;27;20616;-54
2022/10/28 10:07:44;;;;;;;10.20;5.57;;;19.50;1.00;;;;;;6387171;27;20311;-54
2022/10/28 10:10:49;;;;;;;5.50;5.00;;;19.60;1.00;;;;;;6387133;27;20227;-53
2022/10/28 10:13:54;;;;;;;9.53;5.27;;;19.80;1.00;;;;;;6388593;27;20226;-53
2022/10/28 10:17:02;;;;;;;8.50;5.37;;;19.90;1.00;;;;;;6387462;27;20227;-57
2022/10/28 10:20:09;;;;;;;7.87;5.30;;;19.90;1.00;;;;;;6385505;27;20231;-54
2022/10/28 10:23:23;;;;;;;7.03;4.70;;;20.00;1.00;;;;;;6388892;27;20227;-54
2022/10/28 10:26:32;;;;;;;8.27;4.97;;;20.10;1.00;;;;;;6388060;27;20238;-53
2022/10/28 10:29:36;;;;;;;5.43;4.80;;;20.20;1.00;;;;;;6383789;27;20388;-54
2022/10/28 10:32:39;;;;;;;7.27;4.97;;;20.30;1.00;;;;;;6379506;27;20235;-54
2022/10/28 10:35:44;;;;;;;6.30;4.50;;;20.50;1.00;;;;;;6388257;27;20230;-54
2022/10/28 10:38:49;;;;;;;5.50;5.00;;;20.50;1.00;;;;;;6379767;27;20237;-53
2022/10/28 10:41:54;;;;;;;6.97;4.90;;;20.60;1.00;;;;;;6388339;27;20243;-54
2022/10/28 10:45:02;;;;;;;5.57;4.70;;;20.60;1.00;;;;;;6386978;27;20223;-59
2022/10/28 10:48:14;;;;;;;6.87;5.00;;;20.60;1.00;;;;;;6383520;27;20255;-54
2022/10/28 10:51:24;;;;;;;6.33;4.33;;;20.70;1.00;;;;;;6386450;27;20219;-54
2022/10/28 10:54:30;;;;;;;5.13;4.47;;;20.70;1.00;;;;;;6387994;27;20223;-55
2022/10/28 10:57:35;;;;;;;5.93;4.80;;;20.80;1.00;;;;;;6368545;27;20303;-53
2022/10/28 11:00:44;;;;;;;7.27;4.57;;;20.90;1.00;;;;;;6387052;27;20761;-54
2022/10/28 11:03:59;;;;;;;6.17;5.03;;;20.90;1.00;;;;;;6386648;27;20247;-53
2022/10/28 11:07:15;;;;;;;7.03;5.23;;;21.10;1.00;;;;;;6380474;27;20235;-54
2022/10/28 11:10:36;;;;;;;6.47;4.80;;;21.20;1.00;;;;;;6387208;27;20223;-54
2022/10/28 11:13:40;;;;;;;8.00;4.70;;;21.30;1.00;;;;;;6387203;27;20698;-54
2022/10/28 11:16:51;;;;;;;8.27;4.33;;;21.50;1.00;;;;;;6380683;27;20235;-54
2022/10/28 11:19:56;;;;;;;5.73;4.83;;;21.60;1.00;;;;;;6384785;27;20227;-55
2022/10/28 11:23:11;;;;;;;5.60;4.90;;;21.70;1.00;;;;;;6385691;27;20239;-55
2022/10/28 11:26:16;;;;;;;12.90;5.87;;;21.80;1.00;;;;;;6378115;27;20235;-55
2022/10/28 11:29:21;;;;;;;8.73;5.30;;;21.90;1.00;;;;;;6382899;27;20234;-56
2022/10/28 11:32:34;;;;;;;9.53;5.07;;;22.00;1.00;;;;;;6378109;27;20305;-55
2022/10/28 11:36:03;;;;;;;5.10;4.60;;;22.10;1.00;;;;;;6370568;27;20215;-55
2022/10/28 11:39:25;;;;;;;7.53;4.20;;;22.10;1.00;;;;;;6385699;27;20227;-55
2022/10/28 11:42:39;;;;;;;7.57;5.10;;;22.20;1.00;;;;;;6385520;27;20231;-54
2022/10/28 11:45:49;;;;;;;7.13;4.63;;;22.30;1.00;;;;;;6378950;27;20403;-54
2022/10/28 11:49:28;;;;;;;6.40;5.30;;;22.30;1.00;;;;;;6385659;27;20241;-54
2022/10/28 11:52:48;;;;;;;7.90;5.23;;;22.30;1.00;;;;;;6385528;27;20238;-53
2022/10/28 11:55:59;;;;;;;5.63;4.90;;;22.40;1.00;;;;;;6380219;27;20241;-55
2022/10/28 11:59:47;;;;;;;7.63;4.60;;;22.50;1.00;;;;;;6381460;27;20231;-54
2022/10/28 12:03:13;;;;;;;8.23;4.63;;;22.50;1.00;;;;;;6380952;27;20243;-53
2022/10/28 12:06:24;;;;;;;5.40;4.80;;;22.40;1.00;;;;;;6386387;27;20243;-53
2022/10/28 12:09:36;;;;;;;6.27;5.30;;;22.40;1.00;;;;;;6381411;27;20320;-54
2022/10/28 12:12:45;;;;;;;8.37;4.50;;;22.30;1.00;;;;;;6382466;27;20253;-55
2022/10/28 12:15:58;;;;;;;8.27;4.57;;;22.30;1.00;;;;;;6386826;27;20310;-55
2022/10/28 12:19:08;;;;;;;10.73;5.33;;;22.30;1.00;;;;;;6380236;27;20573;-55
2022/10/28 12:22:16;;;;;;;10.40;5.63;;;22.30;1.00;;;;;;6385853;27;20499;-55
2022/10/28 12:25:23;;;;;;;8.87;4.80;;;22.30;1.00;;;;;;6385436;27;20235;-53
2022/10/28 12:28:32;;;;;;;7.70;5.30;;;22.50;1.00;;;;;;6350435;27;20636;-53
2022/10/28 12:31:45;;;;;;;11.23;5.43;;;22.60;1.00;;;;;;6369807;27;20231;-54
2022/10/28 12:34:53;;;;;;;8.73;4.60;;;22.60;1.00;;;;;;6385074;27;20226;-54
2022/10/28 12:38:02;;;;;;;11.10;4.67;;;22.60;1.00;;;;;;6383516;27;20731;-54
2022/10/28 12:41:12;;;;;;;6.53;4.60;;;22.50;1.00;;;;;;6386318;27;20238;-54
2022/10/28 12:44:20;;;;;;;11.37;5.37;;;22.50;1.00;;;;;;6379522;27;20231;-54
2022/10/28 12:47:28;;;;;;;14.67;5.27;;;22.50;1.00;;;;;;6379065;27;20623;-54
2022/10/28 12:50:37;;;;;;;7.13;4.90;;;22.50;1.00;;;;;;6385424;27;20233;-56
2022/10/28 12:53:46;;;;;;;13.43;5.13;;;22.60;1.00;;;;;;6377149;27;20578;-54
2022/10/28 12:56:52;;;;;;;9.93;5.33;;;22.60;1.00;;;;;;6377760;27;20367;-58
2022/10/28 13:00:05;;;;;;;10.80;4.83;;;22.60;1.00;;;;;;6385477;27;20223;-54
2022/10/28 13:03:12;;;;;;;5.67;5.17;;;22.70;1.00;;;;;;6381706;27;20231;-53
2022/10/28 13:06:31;;;;;;;7.50;4.73;;;22.80;1.00;;;;;;6382015;27;20543;-54
2022/10/28 13:09:55;;;;;;;7.50;4.80;;;22.90;1.00;;;;;;6382449;27;20223;-54
2022/10/28 13:13:34;;;;;;;8.50;5.73;;;22.80;1.00;;;;;;6382659;27;20230;-54
2022/10/28 13:16:52;;;;;;;8.07;5.77;;;22.80;1.00;;;;;;6361574;27;20230;-54
2022/10/28 13:20:17;;;;;;;8.33;6.13;;;22.90;1.00;;;;;;6379683;27;20236;-54
2022/10/28 13:23:29;;;;;;;6.97;4.97;;;22.90;1.00;;;;;;6378281;27;20235;-53
2022/10/28 13:26:35;;;;;;;8.50;4.87;;;22.90;1.00;;;;;;6385076;27;20817;-54
2022/10/28 13:29:40;;;;;;;6.90;4.53;;;22.80;1.00;;;;;;6378654;27;20722;-53
2022/10/28 13:32:45;;;;;;;7.20;4.63;;;22.90;1.00;;;;;;6375656;27;20698;-53
2022/10/28 13:35:49;;;;;;;11.10;4.80;;;22.90;1.00;;;;;;6383876;27;20596;-54
2022/10/28 13:38:57;;;;;;;8.90;5.70;;;22.80;1.00;;;;;;6368665;27;20231;-54
2022/10/28 13:42:46;;;;;;;7.33;5.43;;;22.80;1.00;;;;;;6381936;27;20453;-54
2022/10/28 13:45:52;;;;;;;9.50;5.37;;;22.70;1.00;;;;;;6381569;27;20888;-54
2022/10/28 13:49:25;;;;;;;11.90;5.63;;;22.70;1.00;;;;;;6384785;27;20322;-54
2022/10/28 13:52:28;;;;;;;8.40;5.27;;;22.60;1.00;;;;;;6386632;27;20601;-54
2022/10/28 13:55:44;;;;;;;9.43;5.67;;;22.60;1.00;;;;;;6389168;27;20242;-55
2022/10/28 13:58:53;;;;;;;8.33;5.27;;;22.50;1.00;;;;;;6381030;27;20261;-54
2022/10/28 14:01:59;;;;;;;5.77;5.00;;;22.50;1.00;;;;;;6388363;27;20735;-52
2022/10/28 14:05:26;;;;;;;7.20;4.90;;;22.30;1.00;;;;;;6387627;27;20598;-55
2022/10/28 14:08:38;;;;;;;5.20;4.70;;;22.30;1.00;;;;;;6388544;27;20226;-55
2022/10/28 14:11:41;;;;;;;7.60;5.43;;;22.20;1.00;;;;;;6384375;27;20257;-55
2022/10/28 14:15:00;;;;;;;8.53;4.23;;;22.10;1.00;;;;;;6389303;27;20226;-55
2022/10/28 14:18:05;;;;;;;4.83;4.43;;;22.00;1.00;;;;;;6388403;27;20237;-55
2022/10/28 14:21:52;;;;;;;7.30;4.50;;;22.00;1.00;;;;;;6386317;27;20818;-54
2022/10/28 14:25:03;;;;;;;6.43;5.17;;;21.90;1.00;;;;;;6386985;27;20226;-54
2022/10/28 14:28:50;;;;;;;9.73;5.50;;;21.80;1.00;;;;;;6386699;27;20787;-54
2022/10/28 14:31:53;;;;;;;14.77;5.50;;;21.80;1.00;;;;;;6379558;27;20230;-54
2022/10/28 14:34:58;;;;;;;7.67;5.43;;;21.70;1.00;;;;;;6386446;27;20348;-53
2022/10/28 14:38:38;;;;;;;7.80;5.33;;;21.70;1.00;;;;;;6387645;27;20222;-53
2022/10/28 14:42:04;;;;;;;7.13;5.03;;;21.80;1.00;;;;;;6388008;27;20237;-53
2022/10/28 14:45:30;;;;;;;6.27;5.37;;;21.70;1.00;;;;;;6386118;27;20294;-54
2022/10/28 14:48:51;;;;;;;9.07;5.40;;;21.70;1.00;;;;;;6384800;27;20227;-53
2022/10/28 14:51:55;;;;;;;7.07;5.30;;;21.60;1.00;;;;;;6387980;27;20235;-54
2022/10/28 14:55:00;;;;;;;9.27;4.97;;;21.60;1.00;;;;;;6385019;27;20234;-54
2022/10/28 14:58:21;;;;;;;9.83;5.20;;;21.60;1.00;;;;;;6377251;27;20751;-54
2022/10/28 15:01:33;;;;;;;6.17;5.03;;;21.50;1.00;;;;;;6383504;27;20233;-54
2022/10/28 15:04:38;;;;;;;14.47;5.47;;;21.40;1.00;;;;;;6387763;27;20239;-54
2022/10/28 15:07:41;;;;;;;7.17;5.20;;;21.30;1.00;;;;;;6387546;27;20251;-57
2022/10/28 15:10:49;;;;;;;12.80;5.10;;;21.10;1.00;;;;;;6384425;27;20233;-54
2022/10/28 15:13:53;;;;;;;7.27;4.73;;;21.10;1.00;;;;;;6387770;27;20625;-54
2022/10/28 15:16:58;;;;;;;10.10;5.13;;;21.00;1.00;;;;;;6359706;27;20610;-53
2022/10/28 15:20:19;;;;;;;6.40;5.57;;;20.90;1.00;;;;;;6382809;27;20227;-54
2022/10/28 15:23:23;;;;;;;9.90;7.27;;;20.80;1.00;;;;;;6387947;27;20297;-56
2022/10/28 15:26:26;;;;;;;11.10;6.20;;;20.80;1.00;;;;;;6381780;27;20246;-53
2022/10/28 15:29:31;;;;;;;7.43;6.23;;;20.80;1.00;;;;;;6388798;27;20586;-54
2022/10/28 15:32:35;;;;;;;7.33;6.00;;;20.70;1.00;;;;;;6378368;27;20235;-54
2022/10/28 15:35:39;;;;;;;7.67;5.53;;;20.70;1.00;;;;;;6384488;27;20241;-54
2022/10/28 15:38:42;;;;;;;9.80;6.33;;;20.60;1.00;;;;;;6388653;27;20737;-53
2022/10/28 15:41:48;;;;;;;11.73;6.27;;;20.50;1.00;;;;;;6389169;27;20230;-53
2022/10/28 15:44:55;;;;;;;13.47;5.60;;;20.40;1.00;;;;;;6383368;27;20235;-54
2022/10/28 15:48:00;;;;;;;7.57;5.17;;;20.30;1.00;;;;;;6386825;27;20230;-53
2022/10/28 15:51:11;;;;;;;8.83;6.00;;;20.20;1.00;;;;;;6387733;27;20578;-57
2022/10/28 15:54:19;;;;;;;9.10;6.23;;;20.20;1.00;;;;;;6379319;27;20247;-55
2022/10/28 15:57:23;;;;;;;11.53;6.43;;;20.00;1.00;;;;;;6386253;27;20707;-54
2022/10/28 16:00:30;;;;;;;11.17;6.50;;;20.00;1.00;;;;;;6386288;27;20298;-54
2022/10/28 16:03:42;;;;;;;12.93;6.80;;;19.90;1.00;;;;;;6378316;27;20247;-54
2022/10/28 16:06:46;;;;;;;11.37;6.03;;;19.80;1.00;;;;;;6385157;27;20625;-55
2022/10/28 16:09:50;;;;;;;12.03;6.10;;;19.80;1.00;;;;;;6384005;27;20233;-56
2022/10/28 16:12:53;;;;;;;7.90;5.93;;;19.70;1.00;;;;;;6386648;27;20238;-54
2022/10/28 16:16:04;;;;;;;11.17;6.47;;;19.70;1.00;;;;;;6384092;27;20723;-54
2022/10/28 16:19:08;;;;;;;10.70;6.50;;;19.50;1.00;;;;;;6379598;27;20627;-54
2022/10/28 16:22:12;;;;;;;12.70;6.90;;;19.50;1.00;;;;;;6356371;27;20226;-54
2022/10/28 16:25:18;;;;;;;12.87;7.30;;;19.40;1.00;;;;;;6384484;27;20257;-54
2022/10/28 16:28:25;;;;;;;13.33;7.93;;;19.40;1.00;;;;;;6384002;27;20773;-54